sensor_id;sensor_type;location;lat;lon;timestamp;temperature;humidity
14471;DHT22;7321;50.802;4.336;2023-04-25T00:00:46;9.90;99.90
14471;DHT22;7321;50.802;4.336;2023-04-25T00:03:12;9.90;99.90
14471;DHT22;7321;50.802;4.336;2023-04-25T00:05:39;10.00;99.90
14471;DHT22;7321;50.802;4.336;2023-04-25T00:08:05;10.00;99.90
14471;DHT22;7321;50.802;4.336;2023-04-25T00:10:31;10.00;99.90
14471;DHT22;7321;50.802;4.336;2023-04-25T00:12:57;10.00;99.90
14471;DHT22;7321;50.802;4.336;2023-04-25T00:15:23;10.00;99.90
14471;DHT22;7321;50.802;4.336;2023-04-25T00:17:50;9.90;99.90
14471;DHT22;7321;50.802;4.336;2023-04-25T00:20:18;9.60;99.90
14471;DHT22;7321;50.802;4.336;2023-04-25T00:22:44;9.70;99.90
14471;DHT22;7321;50.802;4.336;2023-04-25T00:25:09;9.80;99.90
14471;DHT22;7321;50.802;4.336;2023-04-25T00:27:35;9.90;99.90
14471;DHT22;7321;50.802;4.336;2023-04-25T00:30:02;10.10;99.90
14471;DHT22;7321;50.802;4.336;2023-04-25T00:32:28;9.90;99.90
14471;DHT22;7321;50.802;4.336;2023-04-25T00:34:54;9.70;99.90
14471;DHT22;7321;50.802;4.336;2023-04-25T00:37:21;9.50;99.90
14471;DHT22;7321;50.802;4.336;2023-04-25T00:39:47;9.50;99.90
14471;DHT22;7321;50.802;4.336;2023-04-25T00:42:13;9.60;99.90
14471;DHT22;7321;50.802;4.336;2023-04-25T00:44:39;9.60;99.90
14471;DHT22;7321;50.802;4.336;2023-04-25T00:47:06;9.70;99.90
14471;DHT22;7321;50.802;4.336;2023-04-25T00:49:32;9.70;99.90
14471;DHT22;7321;50.802;4.336;2023-04-25T00:51:58;9.80;99.90
14471;DHT22;7321;50.802;4.336;2023-04-25T00:54:24;9.80;99.90
14471;DHT22;7321;50.802;4.336;2023-04-25T00:56:50;9.90;99.90
14471;DHT22;7321;50.802;4.336;2023-04-25T00:59:17;9.90;99.90
14471;DHT22;7321;50.802;4.336;2023-04-25T01:01:44;9.80;99.90
14471;DHT22;7321;50.802;4.336;2023-04-25T01:04:10;9.70;99.90
14471;DHT22;7321;50.802;4.336;2023-04-25T01:06:36;9.80;99.90
14471;DHT22;7321;50.802;4.336;2023-04-25T01:09:02;9.80;99.90
14471;DHT22;7321;50.802;4.336;2023-04-25T01:11:28;9.70;99.90
14471;DHT22;7321;50.802;4.336;2023-04-25T01:13:54;9.70;99.90
14471;DHT22;7321;50.802;4.336;2023-04-25T01:16:20;9.60;99.90
14471;DHT22;7321;50.802;4.336;2023-04-25T01:18:46;9.60;99.90
14471;DHT22;7321;50.802;4.336;2023-04-25T01:21:13;9.60;99.90
14471;DHT22;7321;50.802;4.336;2023-04-25T01:23:40;9.60;99.90
14471;DHT22;7321;50.802;4.336;2023-04-25T01:26:06;9.60;99.90
14471;DHT22;7321;50.802;4.336;2023-04-25T01:28:34;9.80;99.90
14471;DHT22;7321;50.802;4.336;2023-04-25T01:31:01;9.80;99.90
14471;DHT22;7321;50.802;4.336;2023-04-25T01:33:27;9.80;99.90
14471;DHT22;7321;50.802;4.336;2023-04-25T01:35:54;9.70;99.90
14471;DHT22;7321;50.802;4.336;2023-04-25T01:38:19;9.70;99.90
14471;DHT22;7321;50.802;4.336;2023-04-25T01:40:46;9.60;99.90
14471;DHT22;7321;50.802;4.336;2023-04-25T01:43:15;9.70;99.90
14471;DHT22;7321;50.802;4.336;2023-04-25T01:45:42;9.60;99.90
14471;DHT22;7321;50.802;4.336;2023-04-25T01:48:12;9.60;99.90
14471;DHT22;7321;50.802;4.336;2023-04-25T01:50:39;9.50;99.90
14471;DHT22;7321;50.802;4.336;2023-04-25T01:53:06;9.60;99.90
14471;DHT22;7321;50.802;4.336;2023-04-25T01:55:32;9.50;99.90
14471;DHT22;7321;50.802;4.336;2023-04-25T01:57:58;9.50;99.90
14471;DHT22;7321;50.802;4.336;2023-04-25T02:00:25;9.40;99.90
14471;DHT22;7321;50.802;4.336;2023-04-25T02:02:50;9.40;99.90
14471;DHT22;7321;50.802;4.336;2023-04-25T02:05:19;9.10;99.90
14471;DHT22;7321;50.802;4.336;2023-04-25T02:07:46;9.10;99.90
14471;DHT22;7321;50.802;4.336;2023-04-25T02:10:12;9.00;99.90
14471;DHT22;7321;50.802;4.336;2023-04-25T02:12:38;9.00;99.90
14471;DHT22;7321;50.802;4.336;2023-04-25T02:15:04;9.00;99.90
14471;DHT22;7321;50.802;4.336;2023-04-25T02:17:30;8.90;99.90
14471;DHT22;7321;50.802;4.336;2023-04-25T02:19:57;8.90;99.90
14471;DHT22;7321;50.802;4.336;2023-04-25T02:22:23;9.10;99.90
14471;DHT22;7321;50.802;4.336;2023-04-25T02:24:48;9.20;99.90
14471;DHT22;7321;50.802;4.336;2023-04-25T02:27:14;9.20;99.90
14471;DHT22;7321;50.802;4.336;2023-04-25T02:29:40;9.20;99.90
14471;DHT22;7321;50.802;4.336;2023-04-25T02:32:06;9.10;99.90
14471;DHT22;7321;50.802;4.336;2023-04-25T02:34:32;9.10;99.90
14471;DHT22;7321;50.802;4.336;2023-04-25T02:36:58;9.20;99.90
14471;DHT22;7321;50.802;4.336;2023-04-25T02:39:24;9.10;99.90
14471;DHT22;7321;50.802;4.336;2023-04-25T02:41:51;9.20;99.90
14471;DHT22;7321;50.802;4.336;2023-04-25T02:44:17;9.30;99.90
14471;DHT22;7321;50.802;4.336;2023-04-25T02:46:43;9.50;99.90
14471;DHT22;7321;50.802;4.336;2023-04-25T02:49:08;9.40;99.90
14471;DHT22;7321;50.802;4.336;2023-04-25T02:51:35;9.30;99.90
14471;DHT22;7321;50.802;4.336;2023-04-25T02:54:00;9.10;99.90
14471;DHT22;7321;50.802;4.336;2023-04-25T02:56:26;9.10;99.90
14471;DHT22;7321;50.802;4.336;2023-04-25T02:58:53;9.20;99.90
14471;DHT22;7321;50.802;4.336;2023-04-25T03:01:19;9.20;99.90
14471;DHT22;7321;50.802;4.336;2023-04-25T03:03:45;9.20;99.90
14471;DHT22;7321;50.802;4.336;2023-04-25T03:06:12;9.20;99.90
14471;DHT22;7321;50.802;4.336;2023-04-25T03:08:37;9.10;99.90
14471;DHT22;7321;50.802;4.336;2023-04-25T03:11:03;9.10;99.90
14471;DHT22;7321;50.802;4.336;2023-04-25T03:13:29;9.20;99.90
14471;DHT22;7321;50.802;4.336;2023-04-25T03:15:55;9.30;99.90
14471;DHT22;7321;50.802;4.336;2023-04-25T03:18:21;9.20;99.90
14471;DHT22;7321;50.802;4.336;2023-04-25T03:20:47;9.10;99.90
14471;DHT22;7321;50.802;4.336;2023-04-25T03:23:13;9.10;99.90
14471;DHT22;7321;50.802;4.336;2023-04-25T03:25:38;9.10;99.90
14471;DHT22;7321;50.802;4.336;2023-04-25T03:28:04;9.10;99.90
14471;DHT22;7321;50.802;4.336;2023-04-25T03:30:30;9.10;99.90
14471;DHT22;7321;50.802;4.336;2023-04-25T03:32:56;8.90;99.90
14471;DHT22;7321;50.802;4.336;2023-04-25T03:35:22;9.00;99.90
14471;DHT22;7321;50.802;4.336;2023-04-25T03:37:49;8.90;99.90
14471;DHT22;7321;50.802;4.336;2023-04-25T03:40:15;8.90;99.90
14471;DHT22;7321;50.802;4.336;2023-04-25T03:42:41;8.90;99.90
14471;DHT22;7321;50.802;4.336;2023-04-25T03:45:10;8.90;99.90
14471;DHT22;7321;50.802;4.336;2023-04-25T03:47:36;8.80;99.90
14471;DHT22;7321;50.802;4.336;2023-04-25T03:50:02;8.80;99.90
14471;DHT22;7321;50.802;4.336;2023-04-25T03:52:28;8.80;99.90
14471;DHT22;7321;50.802;4.336;2023-04-25T03:54:54;8.80;99.90
14471;DHT22;7321;50.802;4.336;2023-04-25T03:57:20;8.90;99.90
14471;DHT22;7321;50.802;4.336;2023-04-25T03:59:45;8.60;99.90
14471;DHT22;7321;50.802;4.336;2023-04-25T04:02:11;8.50;99.90
14471;DHT22;7321;50.802;4.336;2023-04-25T04:04:37;8.40;99.90
14471;DHT22;7321;50.802;4.336;2023-04-25T04:07:03;8.50;99.90
14471;DHT22;7321;50.802;4.336;2023-04-25T04:09:29;8.50;99.90
14471;DHT22;7321;50.802;4.336;2023-04-25T04:11:55;8.50;99.90
14471;DHT22;7321;50.802;4.336;2023-04-25T04:14:21;8.50;99.90
14471;DHT22;7321;50.802;4.336;2023-04-25T04:16:46;8.40;99.90
14471;DHT22;7321;50.802;4.336;2023-04-25T04:19:12;8.50;99.90
14471;DHT22;7321;50.802;4.336;2023-04-25T04:21:38;8.40;99.90
14471;DHT22;7321;50.802;4.336;2023-04-25T04:24:04;8.50;99.90
14471;DHT22;7321;50.802;4.336;2023-04-25T04:26:32;8.50;99.90
14471;DHT22;7321;50.802;4.336;2023-04-25T04:28:58;8.50;99.90
14471;DHT22;7321;50.802;4.336;2023-04-25T04:31:24;8.50;99.90
14471;DHT22;7321;50.802;4.336;2023-04-25T04:33:50;8.60;99.90
14471;DHT22;7321;50.802;4.336;2023-04-25T04:36:17;8.60;99.90
14471;DHT22;7321;50.802;4.336;2023-04-25T04:38:47;8.70;99.90
14471;DHT22;7321;50.802;4.336;2023-04-25T04:41:13;8.70;99.90
14471;DHT22;7321;50.802;4.336;2023-04-25T04:43:39;8.60;99.90
14471;DHT22;7321;50.802;4.336;2023-04-25T04:46:05;8.80;99.90
14471;DHT22;7321;50.802;4.336;2023-04-25T04:48:34;8.60;99.90
14471;DHT22;7321;50.802;4.336;2023-04-25T04:51:00;8.70;99.90
14471;DHT22;7321;50.802;4.336;2023-04-25T04:53:26;8.70;99.90
14471;DHT22;7321;50.802;4.336;2023-04-25T04:55:52;8.80;99.90
14471;DHT22;7321;50.802;4.336;2023-04-25T04:58:18;8.60;99.90
14471;DHT22;7321;50.802;4.336;2023-04-25T05:00:45;8.60;99.90
14471;DHT22;7321;50.802;4.336;2023-04-25T05:03:10;8.50;99.90
14471;DHT22;7321;50.802;4.336;2023-04-25T05:05:37;8.50;99.90
14471;DHT22;7321;50.802;4.336;2023-04-25T05:08:06;8.40;99.90
14471;DHT22;7321;50.802;4.336;2023-04-25T05:10:32;8.30;99.90
14471;DHT22;7321;50.802;4.336;2023-04-25T05:12:58;8.20;99.90
14471;DHT22;7321;50.802;4.336;2023-04-25T05:15:24;8.10;99.90
14471;DHT22;7321;50.802;4.336;2023-04-25T05:17:52;8.00;99.90
14471;DHT22;7321;50.802;4.336;2023-04-25T05:20:18;8.20;99.90
14471;DHT22;7321;50.802;4.336;2023-04-25T05:22:44;8.20;99.90
14471;DHT22;7321;50.802;4.336;2023-04-25T05:25:10;8.20;99.90
14471;DHT22;7321;50.802;4.336;2023-04-25T05:27:36;8.20;99.90
14471;DHT22;7321;50.802;4.336;2023-04-25T05:30:02;8.10;99.90
14471;DHT22;7321;50.802;4.336;2023-04-25T05:32:29;8.20;99.90
14471;DHT22;7321;50.802;4.336;2023-04-25T05:34:58;8.40;99.90
14471;DHT22;7321;50.802;4.336;2023-04-25T05:37:23;8.30;99.90
14471;DHT22;7321;50.802;4.336;2023-04-25T05:39:50;8.30;99.90
14471;DHT22;7321;50.802;4.336;2023-04-25T05:42:15;8.40;99.90
14471;DHT22;7321;50.802;4.336;2023-04-25T05:44:41;8.40;99.90
14471;DHT22;7321;50.802;4.336;2023-04-25T05:47:07;8.40;99.90
14471;DHT22;7321;50.802;4.336;2023-04-25T05:49:34;8.50;99.90
14471;DHT22;7321;50.802;4.336;2023-04-25T05:52:00;8.50;99.90
14471;DHT22;7321;50.802;4.336;2023-04-25T05:54:26;8.40;99.90
14471;DHT22;7321;50.802;4.336;2023-04-25T05:56:52;8.50;99.90
14471;DHT22;7321;50.802;4.336;2023-04-25T05:59:17;8.50;99.90
14471;DHT22;7321;50.802;4.336;2023-04-25T06:01:43;8.20;99.90
14471;DHT22;7321;50.802;4.336;2023-04-25T06:04:09;8.30;99.90
14471;DHT22;7321;50.802;4.336;2023-04-25T06:06:35;8.50;99.90
14471;DHT22;7321;50.802;4.336;2023-04-25T06:09:01;8.50;99.90
14471;DHT22;7321;50.802;4.336;2023-04-25T06:11:27;8.60;99.90
14471;DHT22;7321;50.802;4.336;2023-04-25T06:13:52;8.60;99.90
14471;DHT22;7321;50.802;4.336;2023-04-25T06:16:19;8.70;99.90
14471;DHT22;7321;50.802;4.336;2023-04-25T06:18:45;8.90;99.90
14471;DHT22;7321;50.802;4.336;2023-04-25T06:21:11;8.90;99.90
14471;DHT22;7321;50.802;4.336;2023-04-25T06:23:36;8.90;99.90
14471;DHT22;7321;50.802;4.336;2023-04-25T06:26:02;8.90;99.90
14471;DHT22;7321;50.802;4.336;2023-04-25T06:28:28;8.80;99.90
14471;DHT22;7321;50.802;4.336;2023-04-25T06:30:54;9.00;99.90
14471;DHT22;7321;50.802;4.336;2023-04-25T06:33:20;9.20;99.90
14471;DHT22;7321;50.802;4.336;2023-04-25T06:35:47;9.40;99.90
14471;DHT22;7321;50.802;4.336;2023-04-25T06:38:13;9.20;99.90
14471;DHT22;7321;50.802;4.336;2023-04-25T06:40:38;9.20;99.90
14471;DHT22;7321;50.802;4.336;2023-04-25T06:43:04;9.10;99.90
14471;DHT22;7321;50.802;4.336;2023-04-25T06:45:30;8.90;99.90
14471;DHT22;7321;50.802;4.336;2023-04-25T06:47:56;8.80;99.90
14471;DHT22;7321;50.802;4.336;2023-04-25T06:50:22;8.90;99.90
14471;DHT22;7321;50.802;4.336;2023-04-25T06:52:48;8.80;99.90
14471;DHT22;7321;50.802;4.336;2023-04-25T06:55:13;8.80;99.90
14471;DHT22;7321;50.802;4.336;2023-04-25T06:57:39;8.90;99.90
14471;DHT22;7321;50.802;4.336;2023-04-25T07:00:05;8.90;99.90
14471;DHT22;7321;50.802;4.336;2023-04-25T07:02:34;8.90;99.90
14471;DHT22;7321;50.802;4.336;2023-04-25T07:05:00;9.00;99.90
14471;DHT22;7321;50.802;4.336;2023-04-25T07:07:26;9.10;99.90
14471;DHT22;7321;50.802;4.336;2023-04-25T07:09:52;9.40;99.90
14471;DHT22;7321;50.802;4.336;2023-04-25T07:12:18;9.40;99.90
14471;DHT22;7321;50.802;4.336;2023-04-25T07:14:44;9.50;99.90
14471;DHT22;7321;50.802;4.336;2023-04-25T07:17:10;9.40;99.90
14471;DHT22;7321;50.802;4.336;2023-04-25T07:19:35;9.40;99.90
14471;DHT22;7321;50.802;4.336;2023-04-25T07:22:03;9.40;99.90
14471;DHT22;7321;50.802;4.336;2023-04-25T07:24:29;9.30;99.90
14471;DHT22;7321;50.802;4.336;2023-04-25T07:26:55;9.50;99.90
14471;DHT22;7321;50.802;4.336;2023-04-25T07:29:20;9.50;99.90
14471;DHT22;7321;50.802;4.336;2023-04-25T07:31:46;9.70;99.90
14471;DHT22;7321;50.802;4.336;2023-04-25T07:34:12;9.80;99.90
14471;DHT22;7321;50.802;4.336;2023-04-25T07:36:38;10.00;99.90
14471;DHT22;7321;50.802;4.336;2023-04-25T07:39:04;10.20;99.90
14471;DHT22;7321;50.802;4.336;2023-04-25T07:41:29;10.20;99.90
14471;DHT22;7321;50.802;4.336;2023-04-25T07:43:55;10.10;99.90
14471;DHT22;7321;50.802;4.336;2023-04-25T07:46:21;10.10;99.90
14471;DHT22;7321;50.802;4.336;2023-04-25T07:48:50;10.00;99.90
14471;DHT22;7321;50.802;4.336;2023-04-25T07:51:18;9.90;99.90
14471;DHT22;7321;50.802;4.336;2023-04-25T07:53:45;9.90;99.90
14471;DHT22;7321;50.802;4.336;2023-04-25T07:56:11;10.10;99.90
14471;DHT22;7321;50.802;4.336;2023-04-25T07:58:37;10.20;99.90
14471;DHT22;7321;50.802;4.336;2023-04-25T08:01:03;10.50;99.90
14471;DHT22;7321;50.802;4.336;2023-04-25T08:03:29;10.60;99.90
14471;DHT22;7321;50.802;4.336;2023-04-25T08:05:55;10.50;99.90
14471;DHT22;7321;50.802;4.336;2023-04-25T08:11:43;10.30;99.90
14471;DHT22;7321;50.802;4.336;2023-04-25T08:14:11;10.40;99.90
14471;DHT22;7321;50.802;4.336;2023-04-25T08:16:37;10.30;99.90
14471;DHT22;7321;50.802;4.336;2023-04-25T08:19:02;10.40;99.90
14471;DHT22;7321;50.802;4.336;2023-04-25T08:21:28;10.60;99.90
14471;DHT22;7321;50.802;4.336;2023-04-25T08:23:54;10.60;99.90
14471;DHT22;7321;50.802;4.336;2023-04-25T08:26:21;10.60;99.90
14471;DHT22;7321;50.802;4.336;2023-04-25T08:28:47;10.80;99.90
14471;DHT22;7321;50.802;4.336;2023-04-25T08:31:13;10.60;99.90
14471;DHT22;7321;50.802;4.336;2023-04-25T08:33:38;10.40;99.90
14471;DHT22;7321;50.802;4.336;2023-04-25T08:36:04;10.50;99.90
14471;DHT22;7321;50.802;4.336;2023-04-25T08:38:31;10.50;99.90
14471;DHT22;7321;50.802;4.336;2023-04-25T08:40:57;10.50;99.90
14471;DHT22;7321;50.802;4.336;2023-04-25T08:43:25;10.40;99.90
14471;DHT22;7321;50.802;4.336;2023-04-25T08:45:53;10.50;99.90
14471;DHT22;7321;50.802;4.336;2023-04-25T08:48:23;10.90;99.90
14471;DHT22;7321;50.802;4.336;2023-04-25T08:50:52;11.30;99.90
14471;DHT22;7321;50.802;4.336;2023-04-25T08:53:22;11.70;99.90
14471;DHT22;7321;50.802;4.336;2023-04-25T08:55:51;11.90;99.90
14471;DHT22;7321;50.802;4.336;2023-04-25T08:58:18;11.70;99.90
14471;DHT22;7321;50.802;4.336;2023-04-25T09:00:46;12.00;99.90
14471;DHT22;7321;50.802;4.336;2023-04-25T09:03:13;12.20;99.90
14471;DHT22;7321;50.802;4.336;2023-04-25T09:05:40;12.50;99.90
14471;DHT22;7321;50.802;4.336;2023-04-25T09:08:09;12.60;99.90
14471;DHT22;7321;50.802;4.336;2023-04-25T09:10:36;12.80;99.90
14471;DHT22;7321;50.802;4.336;2023-04-25T09:15:32;12.50;99.90
14471;DHT22;7321;50.802;4.336;2023-04-25T09:17:59;12.60;99.90
14471;DHT22;7321;50.802;4.336;2023-04-25T09:20:25;12.20;99.90
14471;DHT22;7321;50.802;4.336;2023-04-25T09:23:04;12.10;99.90
14471;DHT22;7321;50.802;4.336;2023-04-25T09:25:37;11.90;99.90
14471;DHT22;7321;50.802;4.336;2023-04-25T09:28:05;11.80;99.90
14471;DHT22;7321;50.802;4.336;2023-04-25T09:30:33;11.80;99.90
14471;DHT22;7321;50.802;4.336;2023-04-25T09:33:07;11.70;99.90
14471;DHT22;7321;50.802;4.336;2023-04-25T09:35:37;11.50;99.90
14471;DHT22;7321;50.802;4.336;2023-04-25T09:38:09;11.30;99.90
14471;DHT22;7321;50.802;4.336;2023-04-25T09:40:42;11.10;99.90
14471;DHT22;7321;50.802;4.336;2023-04-25T09:43:21;11.00;99.90
14471;DHT22;7321;50.802;4.336;2023-04-25T09:45:51;10.90;99.90
14471;DHT22;7321;50.802;4.336;2023-04-25T09:48:19;10.80;99.90
14471;DHT22;7321;50.802;4.336;2023-04-25T09:53:34;10.30;99.90
14471;DHT22;7321;50.802;4.336;2023-04-25T09:56:08;10.20;99.90
14471;DHT22;7321;50.802;4.336;2023-04-25T09:58:36;10.10;99.90
14471;DHT22;7321;50.802;4.336;2023-04-25T10:01:07;10.30;99.90
14471;DHT22;7321;50.802;4.336;2023-04-25T10:03:38;10.40;99.90
14471;DHT22;7321;50.802;4.336;2023-04-25T10:06:12;10.60;99.90
14471;DHT22;7321;50.802;4.336;2023-04-25T10:08:40;11.00;99.90
14471;DHT22;7321;50.802;4.336;2023-04-25T10:11:08;11.30;99.90
14471;DHT22;7321;50.802;4.336;2023-04-25T10:13:35;11.80;99.90
14471;DHT22;7321;50.802;4.336;2023-04-25T10:16:03;12.20;99.90
14471;DHT22;7321;50.802;4.336;2023-04-25T10:18:30;12.20;99.90
14471;DHT22;7321;50.802;4.336;2023-04-25T10:21:01;12.30;99.90
14471;DHT22;7321;50.802;4.336;2023-04-25T10:23:30;12.60;99.90
14471;DHT22;7321;50.802;4.336;2023-04-25T10:25:57;12.60;99.90
14471;DHT22;7321;50.802;4.336;2023-04-25T10:28:23;12.40;99.90
14471;DHT22;7321;50.802;4.336;2023-04-25T10:31:08;12.20;99.90
14471;DHT22;7321;50.802;4.336;2023-04-25T10:33:35;11.80;99.90
14471;DHT22;7321;50.802;4.336;2023-04-25T10:36:19;11.70;99.90
14471;DHT22;7321;50.802;4.336;2023-04-25T10:38:50;11.50;99.90
14471;DHT22;7321;50.802;4.336;2023-04-25T10:41:20;11.70;99.90
14471;DHT22;7321;50.802;4.336;2023-04-25T10:43:49;12.10;99.90
14471;DHT22;7321;50.802;4.336;2023-04-25T10:48:53;12.50;99.90
14471;DHT22;7321;50.802;4.336;2023-04-25T10:51:31;12.40;99.90
14471;DHT22;7321;50.802;4.336;2023-04-25T10:56:29;12.30;99.90
14471;DHT22;7321;50.802;4.336;2023-04-25T10:59:06;12.30;99.90
14471;DHT22;7321;50.802;4.336;2023-04-25T11:01:38;12.00;99.90
14471;DHT22;7321;50.802;4.336;2023-04-25T11:04:04;11.70;99.90
14471;DHT22;7321;50.802;4.336;2023-04-25T11:06:51;11.40;99.90
14471;DHT22;7321;50.802;4.336;2023-04-25T11:09:24;11.00;99.90
14471;DHT22;7321;50.802;4.336;2023-04-25T11:11:57;10.80;99.90
14471;DHT22;7321;50.802;4.336;2023-04-25T11:14:24;10.40;99.90
14471;DHT22;7321;50.802;4.336;2023-04-25T11:16:54;10.30;99.90
14471;DHT22;7321;50.802;4.336;2023-04-25T11:19:25;10.20;99.90
14471;DHT22;7321;50.802;4.336;2023-04-25T11:21:55;10.30;99.90
14471;DHT22;7321;50.802;4.336;2023-04-25T11:24:33;10.30;99.90
14471;DHT22;7321;50.802;4.336;2023-04-25T11:27:00;10.30;99.90
14471;DHT22;7321;50.802;4.336;2023-04-25T11:29:31;10.50;99.90
14471;DHT22;7321;50.802;4.336;2023-04-25T11:31:57;10.90;99.90
14471;DHT22;7321;50.802;4.336;2023-04-25T11:34:24;11.10;99.90
14471;DHT22;7321;50.802;4.336;2023-04-25T11:37:02;11.30;99.90
14471;DHT22;7321;50.802;4.336;2023-04-25T11:39:28;11.50;99.90
14471;DHT22;7321;50.802;4.336;2023-04-25T11:41:55;11.70;99.90
14471;DHT22;7321;50.802;4.336;2023-04-25T11:44:21;11.70;99.90
14471;DHT22;7321;50.802;4.336;2023-04-25T11:46:47;11.60;99.90
14471;DHT22;7321;50.802;4.336;2023-04-25T11:49:14;11.50;99.90
14471;DHT22;7321;50.802;4.336;2023-04-25T11:51:41;11.30;99.90
14471;DHT22;7321;50.802;4.336;2023-04-25T11:54:09;11.10;99.90
14471;DHT22;7321;50.802;4.336;2023-04-25T11:56:35;11.10;99.90
14471;DHT22;7321;50.802;4.336;2023-04-25T11:59:05;11.20;99.90
14471;DHT22;7321;50.802;4.336;2023-04-25T12:01:32;11.20;99.90
14471;DHT22;7321;50.802;4.336;2023-04-25T12:04:10;11.10;99.90
14471;DHT22;7321;50.802;4.336;2023-04-25T12:06:37;11.30;99.90
14471;DHT22;7321;50.802;4.336;2023-04-25T12:09:11;11.60;99.90
14471;DHT22;7321;50.802;4.336;2023-04-25T12:11:42;12.10;99.90
14471;DHT22;7321;50.802;4.336;2023-04-25T12:14:12;12.00;99.90
14471;DHT22;7321;50.802;4.336;2023-04-25T12:16:46;12.10;99.90
14471;DHT22;7321;50.802;4.336;2023-04-25T12:19:15;12.20;99.90
14471;DHT22;7321;50.802;4.336;2023-04-25T12:21:41;12.40;99.90
14471;DHT22;7321;50.802;4.336;2023-04-25T12:24:24;12.30;99.90
14471;DHT22;7321;50.802;4.336;2023-04-25T12:27:05;12.30;99.90
14471;DHT22;7321;50.802;4.336;2023-04-25T12:29:32;12.50;99.90
14471;DHT22;7321;50.802;4.336;2023-04-25T12:31:59;12.70;99.90
14471;DHT22;7321;50.802;4.336;2023-04-25T12:34:27;12.90;99.90
14471;DHT22;7321;50.802;4.336;2023-04-25T12:36:54;12.80;99.90
14471;DHT22;7321;50.802;4.336;2023-04-25T12:39:24;12.60;99.90
14471;DHT22;7321;50.802;4.336;2023-04-25T12:41:51;12.40;99.90
14471;DHT22;7321;50.802;4.336;2023-04-25T12:44:21;12.30;99.90
14471;DHT22;7321;50.802;4.336;2023-04-25T12:46:47;12.10;99.90
14471;DHT22;7321;50.802;4.336;2023-04-25T12:49:13;12.00;99.90
14471;DHT22;7321;50.802;4.336;2023-04-25T12:51:39;11.80;99.90
14471;DHT22;7321;50.802;4.336;2023-04-25T12:54:07;11.60;99.90
14471;DHT22;7321;50.802;4.336;2023-04-25T12:56:34;11.50;99.90
14471;DHT22;7321;50.802;4.336;2023-04-25T12:59:00;11.30;99.90
14471;DHT22;7321;50.802;4.336;2023-04-25T13:01:28;11.40;99.90
14471;DHT22;7321;50.802;4.336;2023-04-25T13:03:54;11.70;99.90
14471;DHT22;7321;50.802;4.336;2023-04-25T13:06:21;12.00;99.90
14471;DHT22;7321;50.802;4.336;2023-04-25T13:08:48;12.30;99.90
14471;DHT22;7321;50.802;4.336;2023-04-25T13:11:14;12.40;99.90
14471;DHT22;7321;50.802;4.336;2023-04-25T13:13:43;12.40;99.90
14471;DHT22;7321;50.802;4.336;2023-04-25T13:16:10;12.50;99.90
14471;DHT22;7321;50.802;4.336;2023-04-25T13:18:36;12.20;99.90
14471;DHT22;7321;50.802;4.336;2023-04-25T13:21:02;12.10;99.90
14471;DHT22;7321;50.802;4.336;2023-04-25T13:23:29;11.90;99.90
14471;DHT22;7321;50.802;4.336;2023-04-25T13:25:56;11.80;99.90
14471;DHT22;7321;50.802;4.336;2023-04-25T13:28:27;11.60;99.90
14471;DHT22;7321;50.802;4.336;2023-04-25T13:30:53;11.50;99.90
14471;DHT22;7321;50.802;4.336;2023-04-25T13:33:20;11.70;99.90
14471;DHT22;7321;50.802;4.336;2023-04-25T13:35:48;11.90;99.90
14471;DHT22;7321;50.802;4.336;2023-04-25T13:38:23;11.90;99.90
14471;DHT22;7321;50.802;4.336;2023-04-25T13:40:50;11.70;99.90
14471;DHT22;7321;50.802;4.336;2023-04-25T13:43:30;11.60;99.90
14471;DHT22;7321;50.802;4.336;2023-04-25T13:45:57;11.80;99.90
14471;DHT22;7321;50.802;4.336;2023-04-25T13:48:24;12.00;99.90
14471;DHT22;7321;50.802;4.336;2023-04-25T13:50:50;12.10;99.90
14471;DHT22;7321;50.802;4.336;2023-04-25T13:53:16;12.10;99.90
14471;DHT22;7321;50.802;4.336;2023-04-25T13:55:42;12.30;99.90
14471;DHT22;7321;50.802;4.336;2023-04-25T13:58:07;12.30;99.90
14471;DHT22;7321;50.802;4.336;2023-04-25T14:00:36;12.60;99.90
14471;DHT22;7321;50.802;4.336;2023-04-25T14:03:04;12.70;99.90
14471;DHT22;7321;50.802;4.336;2023-04-25T14:05:33;12.90;99.90
14471;DHT22;7321;50.802;4.336;2023-04-25T14:08:04;12.80;99.90
14471;DHT22;7321;50.802;4.336;2023-04-25T14:10:30;12.50;99.90
14471;DHT22;7321;50.802;4.336;2023-04-25T14:12:56;12.50;99.90
14471;DHT22;7321;50.802;4.336;2023-04-25T14:15:22;12.10;99.90
14471;DHT22;7321;50.802;4.336;2023-04-25T14:17:48;12.10;99.90
14471;DHT22;7321;50.802;4.336;2023-04-25T14:20:15;11.90;99.90
14471;DHT22;7321;50.802;4.336;2023-04-25T14:22:40;12.00;99.90
14471;DHT22;7321;50.802;4.336;2023-04-25T14:25:09;12.10;99.90
14471;DHT22;7321;50.802;4.336;2023-04-25T14:27:35;12.00;99.90
14471;DHT22;7321;50.802;4.336;2023-04-25T14:30:01;11.70;99.90
14471;DHT22;7321;50.802;4.336;2023-04-25T14:32:27;11.70;99.90
14471;DHT22;7321;50.802;4.336;2023-04-25T14:34:53;11.70;99.90
14471;DHT22;7321;50.802;4.336;2023-04-25T14:37:19;11.80;99.90
14471;DHT22;7321;50.802;4.336;2023-04-25T14:39:44;11.80;99.90
14471;DHT22;7321;50.802;4.336;2023-04-25T14:42:11;11.60;99.90
14471;DHT22;7321;50.802;4.336;2023-04-25T14:44:38;11.70;99.90
14471;DHT22;7321;50.802;4.336;2023-04-25T14:47:03;11.80;99.90
14471;DHT22;7321;50.802;4.336;2023-04-25T14:49:29;11.90;99.90
14471;DHT22;7321;50.802;4.336;2023-04-25T14:51:55;12.00;99.90
14471;DHT22;7321;50.802;4.336;2023-04-25T14:54:21;12.00;99.90
14471;DHT22;7321;50.802;4.336;2023-04-25T14:56:47;12.10;99.90
14471;DHT22;7321;50.802;4.336;2023-04-25T14:59:12;12.00;99.90
14471;DHT22;7321;50.802;4.336;2023-04-25T15:01:38;12.20;99.90
14471;DHT22;7321;50.802;4.336;2023-04-25T15:04:07;12.10;99.90
14471;DHT22;7321;50.802;4.336;2023-04-25T15:06:33;11.70;99.90
14471;DHT22;7321;50.802;4.336;2023-04-25T15:08:59;11.50;99.90
14471;DHT22;7321;50.802;4.336;2023-04-25T15:11:25;11.50;99.90
14471;DHT22;7321;50.802;4.336;2023-04-25T15:13:51;11.60;99.90
14471;DHT22;7321;50.802;4.336;2023-04-25T15:16:17;11.90;99.90
14471;DHT22;7321;50.802;4.336;2023-04-25T15:18:43;12.20;99.90
14471;DHT22;7321;50.802;4.336;2023-04-25T15:21:09;12.30;99.90
14471;DHT22;7321;50.802;4.336;2023-04-25T15:23:35;12.60;99.90
14471;DHT22;7321;50.802;4.336;2023-04-25T15:26:01;12.80;99.90
14471;DHT22;7321;50.802;4.336;2023-04-25T15:28:27;12.70;99.90
14471;DHT22;7321;50.802;4.336;2023-04-25T15:30:53;12.40;99.90
14471;DHT22;7321;50.802;4.336;2023-04-25T15:33:19;12.30;99.90
14471;DHT22;7321;50.802;4.336;2023-04-25T15:35:45;12.20;99.90
14471;DHT22;7321;50.802;4.336;2023-04-25T15:38:10;11.80;99.90
14471;DHT22;7321;50.802;4.336;2023-04-25T15:40:36;11.60;99.90
14471;DHT22;7321;50.802;4.336;2023-04-25T15:43:02;11.70;99.90
14471;DHT22;7321;50.802;4.336;2023-04-25T15:45:29;11.70;99.90
14471;DHT22;7321;50.802;4.336;2023-04-25T15:47:57;11.80;99.90
14471;DHT22;7321;50.802;4.336;2023-04-25T15:50:23;11.70;99.90
14471;DHT22;7321;50.802;4.336;2023-04-25T15:52:50;11.70;99.90
14471;DHT22;7321;50.802;4.336;2023-04-25T15:55:16;11.70;99.90
14471;DHT22;7321;50.802;4.336;2023-04-25T15:57:43;11.40;99.90
14471;DHT22;7321;50.802;4.336;2023-04-25T16:00:10;11.20;99.90
14471;DHT22;7321;50.802;4.336;2023-04-25T16:02:42;11.00;99.90
14471;DHT22;7321;50.802;4.336;2023-04-25T16:05:08;11.00;99.90